sensor_id;sensor_type;location;lat;lon;timestamp;P1;durP1;ratioP1;P2;durP2;ratioP2
13991;SDS011;7070;53.586;9.692;2023-05-14T00:01:28;0.50;;;0.50;;
13991;SDS011;7070;53.586;9.692;2023-05-14T00:03:54;0.47;;;0.47;;
13991;SDS011;7070;53.586;9.692;2023-05-14T00:06:23;0.50;;;0.50;;
13991;SDS011;7070;53.586;9.692;2023-05-14T00:08:50;0.50;;;0.50;;
13991;SDS011;7070;53.586;9.692;2023-05-14T00:11:17;0.50;;;0.50;;
13991;SDS011;7070;53.586;9.692;2023-05-14T00:13:44;0.50;;;0.50;;
13991;SDS011;7070;53.586;9.692;2023-05-14T00:16:11;0.50;;;0.50;;
13991;SDS011;7070;53.586;9.692;2023-05-14T00:18:38;0.50;;;0.50;;
13991;SDS011;7070;53.586;9.692;2023-05-14T00:21:05;0.50;;;0.50;;
13991;SDS011;7070;53.586;9.692;2023-05-14T00:23:33;0.50;;;0.50;;
13991;SDS011;7070;53.586;9.692;2023-05-14T00:26:00;0.50;;;0.50;;
13991;SDS011;7070;53.586;9.692;2023-05-14T00:28:31;0.50;;;0.50;;
13991;SDS011;7070;53.586;9.692;2023-05-14T00:30:58;0.43;;;0.43;;
13991;SDS011;7070;53.586;9.692;2023-05-14T00:33:25;0.50;;;0.50;;
13991;SDS011;7070;53.586;9.692;2023-05-14T00:35:52;0.50;;;0.50;;
13991;SDS011;7070;53.586;9.692;2023-05-14T00:38:18;0.50;;;0.50;;
13991;SDS011;7070;53.586;9.692;2023-05-14T00:40:47;0.50;;;0.50;;
13991;SDS011;7070;53.586;9.692;2023-05-14T00:43:16;0.60;;;0.60;;
13991;SDS011;7070;53.586;9.692;2023-05-14T00:45:43;0.50;;;0.50;;
13991;SDS011;7070;53.586;9.692;2023-05-14T00:48:10;0.50;;;0.50;;
13991;SDS011;7070;53.586;9.692;2023-05-14T00:50:38;0.50;;;0.50;;
13991;SDS011;7070;53.586;9.692;2023-05-14T00:53:05;0.57;;;0.57;;
13991;SDS011;7070;53.586;9.692;2023-05-14T00:55:34;0.50;;;0.50;;
13991;SDS011;7070;53.586;9.692;2023-05-14T00:58:04;0.50;;;0.50;;
13991;SDS011;7070;53.586;9.692;2023-05-14T01:00:34;0.60;;;0.60;;
13991;SDS011;7070;53.586;9.692;2023-05-14T01:03:01;0.50;;;0.50;;
13991;SDS011;7070;53.586;9.692;2023-05-14T01:05:29;0.40;;;0.40;;
13991;SDS011;7070;53.586;9.692;2023-05-14T01:08:06;0.60;;;0.60;;
13991;SDS011;7070;53.586;9.692;2023-05-14T01:10:41;0.50;;;0.50;;
13991;SDS011;7070;53.586;9.692;2023-05-14T01:13:17;0.60;;;0.60;;
13991;SDS011;7070;53.586;9.692;2023-05-14T01:15:52;0.50;;;0.50;;
13991;SDS011;7070;53.586;9.692;2023-05-14T01:18:21;0.50;;;0.50;;
13991;SDS011;7070;53.586;9.692;2023-05-14T01:20:49;0.50;;;0.50;;
13991;SDS011;7070;53.586;9.692;2023-05-14T01:23:18;0.53;;;0.53;;
13991;SDS011;7070;53.586;9.692;2023-05-14T01:25:48;0.50;;;0.50;;
13991;SDS011;7070;53.586;9.692;2023-05-14T01:28:15;0.60;;;0.60;;
13991;SDS011;7070;53.586;9.692;2023-05-14T01:30:47;0.50;;;0.50;;
13991;SDS011;7070;53.586;9.692;2023-05-14T01:33:21;0.50;;;0.50;;
13991;SDS011;7070;53.586;9.692;2023-05-14T01:35:51;0.50;;;0.50;;
13991;SDS011;7070;53.586;9.692;2023-05-14T01:38:21;0.60;;;0.60;;
13991;SDS011;7070;53.586;9.692;2023-05-14T01:40:49;0.50;;;0.50;;
13991;SDS011;7070;53.586;9.692;2023-05-14T01:43:17;0.60;;;0.60;;
13991;SDS011;7070;53.586;9.692;2023-05-14T01:45:44;0.60;;;0.60;;
13991;SDS011;7070;53.586;9.692;2023-05-14T01:48:11;0.60;;;0.60;;
13991;SDS011;7070;53.586;9.692;2023-05-14T01:50:38;0.60;;;0.60;;
13991;SDS011;7070;53.586;9.692;2023-05-14T01:53:05;0.57;;;0.57;;
13991;SDS011;7070;53.586;9.692;2023-05-14T01:55:33;0.60;;;0.60;;
13991;SDS011;7070;53.586;9.692;2023-05-14T01:58:00;0.60;;;0.60;;
13991;SDS011;7070;53.586;9.692;2023-05-14T02:00:27;0.43;;;0.43;;
13991;SDS011;7070;53.586;9.692;2023-05-14T02:02:54;0.60;;;0.60;;
13991;SDS011;7070;53.586;9.692;2023-05-14T02:05:21;0.60;;;0.60;;
13991;SDS011;7070;53.586;9.692;2023-05-14T02:07:48;0.50;;;0.50;;
13991;SDS011;7070;53.586;9.692;2023-05-14T02:10:15;0.53;;;0.53;;
13991;SDS011;7070;53.586;9.692;2023-05-14T02:12:43;0.60;;;0.60;;
13991;SDS011;7070;53.586;9.692;2023-05-14T02:15:10;0.60;;;0.60;;
13991;SDS011;7070;53.586;9.692;2023-05-14T02:17:37;0.50;;;0.50;;
13991;SDS011;7070;53.586;9.692;2023-05-14T02:20:05;0.53;;;0.53;;
13991;SDS011;7070;53.586;9.692;2023-05-14T02:22:34;0.60;;;0.60;;
13991;SDS011;7070;53.586;9.692;2023-05-14T02:25:01;0.50;;;0.50;;
13991;SDS011;7070;53.586;9.692;2023-05-14T02:27:28;0.60;;;0.60;;
13991;SDS011;7070;53.586;9.692;2023-05-14T02:29:56;0.53;;;0.53;;
13991;SDS011;7070;53.586;9.692;2023-05-14T02:32:24;0.50;;;0.50;;
13991;SDS011;7070;53.586;9.692;2023-05-14T02:34:51;0.60;;;0.60;;
13991;SDS011;7070;53.586;9.692;2023-05-14T02:37:18;0.70;;;0.70;;
13991;SDS011;7070;53.586;9.692;2023-05-14T02:39:45;0.50;;;0.50;;
13991;SDS011;7070;53.586;9.692;2023-05-14T02:42:13;0.50;;;0.50;;
13991;SDS011;7070;53.586;9.692;2023-05-14T02:44:39;0.60;;;0.60;;
13991;SDS011;7070;53.586;9.692;2023-05-14T02:47:08;0.60;;;0.60;;
13991;SDS011;7070;53.586;9.692;2023-05-14T02:49:34;0.60;;;0.60;;
13991;SDS011;7070;53.586;9.692;2023-05-14T02:52:01;0.40;;;0.40;;
13991;SDS011;7070;53.586;9.692;2023-05-14T02:54:28;0.60;;;0.60;;
13991;SDS011;7070;53.586;9.692;2023-05-14T02:56:55;0.50;;;0.50;;
13991;SDS011;7070;53.586;9.692;2023-05-14T02:59:23;0.63;;;0.63;;
13991;SDS011;7070;53.586;9.692;2023-05-14T03:01:50;0.60;;;0.60;;
13991;SDS011;7070;53.586;9.692;2023-05-14T03:04:18;0.50;;;0.50;;
13991;SDS011;7070;53.586;9.692;2023-05-14T03:06:45;0.60;;;0.60;;
13991;SDS011;7070;53.586;9.692;2023-05-14T03:09:12;0.50;;;0.50;;
13991;SDS011;7070;53.586;9.692;2023-05-14T03:11:39;0.50;;;0.50;;
13991;SDS011;7070;53.586;9.692;2023-05-14T03:14:06;0.53;;;0.53;;
13991;SDS011;7070;53.586;9.692;2023-05-14T03:16:33;0.50;;;0.50;;
13991;SDS011;7070;53.586;9.692;2023-05-14T03:18:59;0.60;;;0.60;;
13991;SDS011;7070;53.586;9.692;2023-05-14T03:21:28;0.60;;;0.60;;
13991;SDS011;7070;53.586;9.692;2023-05-14T03:23:55;0.60;;;0.60;;
13991;SDS011;7070;53.586;9.692;2023-05-14T03:26:22;0.60;;;0.60;;
13991;SDS011;7070;53.586;9.692;2023-05-14T03:28:49;0.50;;;0.50;;
13991;SDS011;7070;53.586;9.692;2023-05-14T03:31:16;0.60;;;0.60;;
13991;SDS011;7070;53.586;9.692;2023-05-14T03:33:43;0.63;;;0.63;;
13991;SDS011;7070;53.586;9.692;2023-05-14T03:36:10;0.57;;;0.57;;
13991;SDS011;7070;53.586;9.692;2023-05-14T03:38:39;0.60;;;0.60;;
13991;SDS011;7070;53.586;9.692;2023-05-14T03:41:05;0.60;;;0.60;;
13991;SDS011;7070;53.586;9.692;2023-05-14T03:43:32;0.60;;;0.60;;
13991;SDS011;7070;53.586;9.692;2023-05-14T03:45:59;0.60;;;0.60;;
13991;SDS011;7070;53.586;9.692;2023-05-14T03:48:26;0.50;;;0.50;;
13991;SDS011;7070;53.586;9.692;2023-05-14T03:50:53;0.60;;;0.60;;
13991;SDS011;7070;53.586;9.692;2023-05-14T03:53:20;0.60;;;0.60;;
13991;SDS011;7070;53.586;9.692;2023-05-14T03:55:48;0.60;;;0.60;;
13991;SDS011;7070;53.586;9.692;2023-05-14T03:58:15;0.57;;;0.57;;
13991;SDS011;7070;53.586;9.692;2023-05-14T04:00:42;0.50;;;0.50;;
13991;SDS011;7070;53.586;9.692;2023-05-14T04:03:09;0.60;;;0.60;;
13991;SDS011;7070;53.586;9.692;2023-05-14T04:05:35;0.60;;;0.60;;
13991;SDS011;7070;53.586;9.692;2023-05-14T04:08:02;0.50;;;0.50;;
13991;SDS011;7070;53.586;9.692;2023-05-14T04:10:30;0.60;;;0.60;;
13991;SDS011;7070;53.586;9.692;2023-05-14T04:12:58;0.50;;;0.50;;
13991;SDS011;7070;53.586;9.692;2023-05-14T04:15:25;0.50;;;0.50;;
13991;SDS011;7070;53.586;9.692;2023-05-14T04:17:52;0.60;;;0.60;;
13991;SDS011;7070;53.586;9.692;2023-05-14T04:20:19;0.53;;;0.53;;
13991;SDS011;7070;53.586;9.692;2023-05-14T04:22:46;0.60;;;0.60;;
13991;SDS011;7070;53.586;9.692;2023-05-14T04:25:12;0.60;;;0.60;;
13991;SDS011;7070;53.586;9.692;2023-05-14T04:27:39;0.57;;;0.57;;
13991;SDS011;7070;53.586;9.692;2023-05-14T04:30:08;0.50;;;0.50;;
13991;SDS011;7070;53.586;9.692;2023-05-14T04:32:35;0.60;;;0.60;;
13991;SDS011;7070;53.586;9.692;2023-05-14T04:35:03;0.50;;;0.50;;
13991;SDS011;7070;53.586;9.692;2023-05-14T04:37:31;0.60;;;0.60;;
13991;SDS011;7070;53.586;9.692;2023-05-14T04:39:58;0.50;;;0.50;;
13991;SDS011;7070;53.586;9.692;2023-05-14T04:42:24;0.50;;;0.50;;
13991;SDS011;7070;53.586;9.692;2023-05-14T04:44:51;0.50;;;0.50;;
13991;SDS011;7070;53.586;9.692;2023-05-14T04:47:19;0.60;;;0.60;;
13991;SDS011;7070;53.586;9.692;2023-05-14T04:49:46;0.60;;;0.60;;
13991;SDS011;7070;53.586;9.692;2023-05-14T04:52:13;0.60;;;0.60;;
13991;SDS011;7070;53.586;9.692;2023-05-14T04:54:40;0.40;;;0.40;;
13991;SDS011;7070;53.586;9.692;2023-05-14T04:57:07;0.50;;;0.50;;
13991;SDS011;7070;53.586;9.692;2023-05-14T04:59:34;0.50;;;0.50;;
13991;SDS011;7070;53.586;9.692;2023-05-14T05:02:00;0.50;;;0.50;;
13991;SDS011;7070;53.586;9.692;2023-05-14T05:04:29;0.50;;;0.50;;
13991;SDS011;7070;53.586;9.692;2023-05-14T05:06:56;0.50;;;0.50;;
13991;SDS011;7070;53.586;9.692;2023-05-14T05:09:22;0.40;;;0.40;;
13991;SDS011;7070;53.586;9.692;2023-05-14T05:11:49;0.50;;;0.50;;
13991;SDS011;7070;53.586;9.692;2023-05-14T05:14:16;0.50;;;0.50;;
13991;SDS011;7070;53.586;9.692;2023-05-14T05:16:43;0.40;;;0.40;;
13991;SDS011;7070;53.586;9.692;2023-05-14T05:19:10;0.40;;;0.40;;
13991;SDS011;7070;53.586;9.692;2023-05-14T05:21:38;0.43;;;0.43;;
13991;SDS011;7070;53.586;9.692;2023-05-14T05:24:05;0.47;;;0.47;;
13991;SDS011;7070;53.586;9.692;2023-05-14T05:26:32;0.40;;;0.40;;
13991;SDS011;7070;53.586;9.692;2023-05-14T05:29:00;0.37;;;0.37;;
13991;SDS011;7070;53.586;9.692;2023-05-14T05:31:27;0.40;;;0.40;;
13991;SDS011;7070;53.586;9.692;2023-05-14T05:33:55;0.40;;;0.40;;
13991;SDS011;7070;53.586;9.692;2023-05-14T05:36:22;0.40;;;0.40;;
13991;SDS011;7070;53.586;9.692;2023-05-14T05:38:50;0.40;;;0.40;;
13991;SDS011;7070;53.586;9.692;2023-05-14T05:41:17;0.40;;;0.40;;
13991;SDS011;7070;53.586;9.692;2023-05-14T05:43:44;0.40;;;0.40;;
13991;SDS011;7070;53.586;9.692;2023-05-14T05:46:11;0.40;;;0.40;;
13991;SDS011;7070;53.586;9.692;2023-05-14T05:48:38;0.40;;;0.40;;
13991;SDS011;7070;53.586;9.692;2023-05-14T05:51:05;0.37;;;0.37;;
13991;SDS011;7070;53.586;9.692;2023-05-14T05:53:31;0.40;;;0.40;;
13991;SDS011;7070;53.586;9.692;2023-05-14T05:56:00;0.30;;;0.30;;
13991;SDS011;7070;53.586;9.692;2023-05-14T05:58:26;0.40;;;0.40;;
13991;SDS011;7070;53.586;9.692;2023-05-14T06:00:53;0.40;;;0.40;;
13991;SDS011;7070;53.586;9.692;2023-05-14T06:03:21;0.40;;;0.40;;
13991;SDS011;7070;53.586;9.692;2023-05-14T06:05:48;0.30;;;0.30;;
13991;SDS011;7070;53.586;9.692;2023-05-14T06:08:16;0.37;;;0.37;;
13991;SDS011;7070;53.586;9.692;2023-05-14T06:10:43;0.40;;;0.40;;
13991;SDS011;7070;53.586;9.692;2023-05-14T06:13:11;0.30;;;0.30;;
13991;SDS011;7070;53.586;9.692;2023-05-14T06:15:38;0.40;;;0.40;;
13991;SDS011;7070;53.586;9.692;2023-05-14T06:18:05;0.30;;;0.30;;
13991;SDS011;7070;53.586;9.692;2023-05-14T06:20:32;0.30;;;0.30;;
13991;SDS011;7070;53.586;9.692;2023-05-14T06:22:59;0.30;;;0.30;;
13991;SDS011;7070;53.586;9.692;2023-05-14T06:25:26;0.33;;;0.33;;
13991;SDS011;7070;53.586;9.692;2023-05-14T06:27:53;0.50;;;0.50;;
13991;SDS011;7070;53.586;9.692;2023-05-14T06:30:21;0.30;;;0.30;;
13991;SDS011;7070;53.586;9.692;2023-05-14T06:32:48;0.30;;;0.30;;
13991;SDS011;7070;53.586;9.692;2023-05-14T06:35:15;0.40;;;0.40;;
13991;SDS011;7070;53.586;9.692;2023-05-14T06:37:42;0.40;;;0.40;;
13991;SDS011;7070;53.586;9.692;2023-05-14T06:40:10;0.30;;;0.30;;
13991;SDS011;7070;53.586;9.692;2023-05-14T06:42:39;0.33;;;0.33;;
13991;SDS011;7070;53.586;9.692;2023-05-14T06:45:06;0.40;;;0.40;;
13991;SDS011;7070;53.586;9.692;2023-05-14T06:47:35;0.40;;;0.40;;
13991;SDS011;7070;53.586;9.692;2023-05-14T06:50:02;0.37;;;0.37;;
13991;SDS011;7070;53.586;9.692;2023-05-14T06:52:29;0.40;;;0.40;;
13991;SDS011;7070;53.586;9.692;2023-05-14T06:54:56;0.30;;;0.30;;
13991;SDS011;7070;53.586;9.692;2023-05-14T06:57:23;0.40;;;0.40;;
13991;SDS011;7070;53.586;9.692;2023-05-14T06:59:50;0.37;;;0.37;;
13991;SDS011;7070;53.586;9.692;2023-05-14T07:02:17;0.37;;;0.37;;
13991;SDS011;7070;53.586;9.692;2023-05-14T07:04:45;0.30;;;0.30;;
13991;SDS011;7070;53.586;9.692;2023-05-14T07:07:12;0.40;;;0.40;;
13991;SDS011;7070;53.586;9.692;2023-05-14T07:09:42;0.40;;;0.40;;
13991;SDS011;7070;53.586;9.692;2023-05-14T07:12:09;0.30;;;0.30;;
13991;SDS011;7070;53.586;9.692;2023-05-14T07:14:35;0.30;;;0.30;;
13991;SDS011;7070;53.586;9.692;2023-05-14T07:17:02;0.30;;;0.30;;
13991;SDS011;7070;53.586;9.692;2023-05-14T07:19:29;0.33;;;0.33;;
13991;SDS011;7070;53.586;9.692;2023-05-14T07:21:57;0.30;;;0.30;;
13991;SDS011;7070;53.586;9.692;2023-05-14T07:24:25;0.33;;;0.33;;
13991;SDS011;7070;53.586;9.692;2023-05-14T07:26:52;0.30;;;0.30;;
13991;SDS011;7070;53.586;9.692;2023-05-14T07:29:21;0.30;;;0.30;;
13991;SDS011;7070;53.586;9.692;2023-05-14T07:31:49;0.27;;;0.27;;
13991;SDS011;7070;53.586;9.692;2023-05-14T07:34:16;0.40;;;0.40;;
13991;SDS011;7070;53.586;9.692;2023-05-14T07:36:43;0.30;;;0.30;;
13991;SDS011;7070;53.586;9.692;2023-05-14T07:39:11;0.37;;;0.37;;
13991;SDS011;7070;53.586;9.692;2023-05-14T07:41:38;0.30;;;0.30;;
13991;SDS011;7070;53.586;9.692;2023-05-14T07:44:05;0.40;;;0.40;;
13991;SDS011;7070;53.586;9.692;2023-05-14T07:46:31;0.40;;;0.40;;
13991;SDS011;7070;53.586;9.692;2023-05-14T07:48:58;0.30;;;0.30;;
13991;SDS011;7070;53.586;9.692;2023-05-14T07:51:25;0.30;;;0.30;;
13991;SDS011;7070;53.586;9.692;2023-05-14T07:53:52;0.30;;;0.30;;
13991;SDS011;7070;53.586;9.692;2023-05-14T07:56:21;0.30;;;0.30;;
13991;SDS011;7070;53.586;9.692;2023-05-14T07:58:47;0.20;;;0.20;;
13991;SDS011;7070;53.586;9.692;2023-05-14T08:01:15;0.30;;;0.30;;
13991;SDS011;7070;53.586;9.692;2023-05-14T08:03:41;0.40;;;0.40;;
13991;SDS011;7070;53.586;9.692;2023-05-14T08:06:08;0.30;;;0.30;;
13991;SDS011;7070;53.586;9.692;2023-05-14T08:08:35;0.30;;;0.30;;
13991;SDS011;7070;53.586;9.692;2023-05-14T08:11:02;0.30;;;0.30;;
13991;SDS011;7070;53.586;9.692;2023-05-14T08:13:30;0.30;;;0.30;;
13991;SDS011;7070;53.586;9.692;2023-05-14T08:15:57;0.30;;;0.30;;
13991;SDS011;7070;53.586;9.692;2023-05-14T08:18:24;0.30;;;0.30;;
13991;SDS011;7070;53.586;9.692;2023-05-14T08:20:51;0.30;;;0.30;;
13991;SDS011;7070;53.586;9.692;2023-05-14T08:23:18;0.30;;;0.30;;
13991;SDS011;7070;53.586;9.692;2023-05-14T08:25:46;0.40;;;0.40;;
13991;SDS011;7070;53.586;9.692;2023-05-14T08:28:13;0.30;;;0.30;;
13991;SDS011;7070;53.586;9.692;2023-05-14T08:30:41;0.30;;;0.30;;
13991;SDS011;7070;53.586;9.692;2023-05-14T08:33:08;0.30;;;0.30;;
13991;SDS011;7070;53.586;9.692;2023-05-14T08:35:35;0.33;;;0.33;;
13991;SDS011;7070;53.586;9.692;2023-05-14T08:38:02;0.40;;;0.40;;
13991;SDS011;7070;53.586;9.692;2023-05-14T08:40:28;0.30;;;0.30;;
13991;SDS011;7070;53.586;9.692;2023-05-14T08:42:56;0.30;;;0.30;;
13991;SDS011;7070;53.586;9.692;2023-05-14T08:45:28;0.30;;;0.30;;
13991;SDS011;7070;53.586;9.692;2023-05-14T08:47:59;0.30;;;0.30;;
13991;SDS011;7070;53.586;9.692;2023-05-14T08:50:29;0.30;;;0.30;;
13991;SDS011;7070;53.586;9.692;2023-05-14T08:52:56;0.30;;;0.30;;
13991;SDS011;7070;53.586;9.692;2023-05-14T08:55:24;0.30;;;0.30;;
13991;SDS011;7070;53.586;9.692;2023-05-14T08:57:53;0.20;;;0.20;;
13991;SDS011;7070;53.586;9.692;2023-05-14T09:00:20;0.30;;;0.30;;
13991;SDS011;7070;53.586;9.692;2023-05-14T09:02:47;0.30;;;0.30;;
13991;SDS011;7070;53.586;9.692;2023-05-14T09:05:16;0.30;;;0.30;;
13991;SDS011;7070;53.586;9.692;2023-05-14T09:07:44;0.30;;;0.30;;
13991;SDS011;7070;53.586;9.692;2023-05-14T09:10:11;0.30;;;0.30;;
13991;SDS011;7070;53.586;9.692;2023-05-14T09:12:40;0.20;;;0.20;;
13991;SDS011;7070;53.586;9.692;2023-05-14T09:15:07;0.30;;;0.30;;
13991;SDS011;7070;53.586;9.692;2023-05-14T09:17:34;0.30;;;0.30;;
13991;SDS011;7070;53.586;9.692;2023-05-14T09:20:01;0.40;;;0.40;;
13991;SDS011;7070;53.586;9.692;2023-05-14T09:22:30;0.30;;;0.30;;
13991;SDS011;7070;53.586;9.692;2023-05-14T09:25:00;0.20;;;0.20;;
13991;SDS011;7070;53.586;9.692;2023-05-14T09:27:29;0.30;;;0.30;;
13991;SDS011;7070;53.586;9.692;2023-05-14T09:30:03;0.30;;;0.30;;
13991;SDS011;7070;53.586;9.692;2023-05-14T09:32:34;0.30;;;0.30;;
13991;SDS011;7070;53.586;9.692;2023-05-14T09:35:08;0.30;;;0.30;;
13991;SDS011;7070;53.586;9.692;2023-05-14T09:37:44;0.33;;;0.33;;
13991;SDS011;7070;53.586;9.692;2023-05-14T09:40:12;0.30;;;0.30;;
13991;SDS011;7070;53.586;9.692;2023-05-14T09:42:39;0.30;;;0.30;;
13991;SDS011;7070;53.586;9.692;2023-05-14T09:45:07;0.40;;;0.40;;
13991;SDS011;7070;53.586;9.692;2023-05-14T09:47:34;0.30;;;0.30;;
13991;SDS011;7070;53.586;9.692;2023-05-14T09:50:02;0.30;;;0.30;;
13991;SDS011;7070;53.586;9.692;2023-05-14T09:52:29;0.30;;;0.30;;
13991;SDS011;7070;53.586;9.692;2023-05-14T09:54:57;0.30;;;0.30;;
13991;SDS011;7070;53.586;9.692;2023-05-14T09:57:25;0.30;;;0.30;;
13991;SDS011;7070;53.586;9.692;2023-05-14T09:59:52;0.30;;;0.30;;
13991;SDS011;7070;53.586;9.692;2023-05-14T10:02:22;0.30;;;0.30;;
13991;SDS011;7070;53.586;9.692;2023-05-14T10:04:51;0.30;;;0.30;;
13991;SDS011;7070;53.586;9.692;2023-05-14T10:07:22;0.30;;;0.30;;
13991;SDS011;7070;53.586;9.692;2023-05-14T10:09:56;0.30;;;0.30;;
13991;SDS011;7070;53.586;9.692;2023-05-14T10:12:27;0.30;;;0.30;;
13991;SDS011;7070;53.586;9.692;2023-05-14T10:14:57;0.30;;;0.30;;
13991;SDS011;7070;53.586;9.692;2023-05-14T10:17:28;0.33;;;0.33;;
13991;SDS011;7070;53.586;9.692;2023-05-14T10:19:57;0.20;;;0.20;;
13991;SDS011;7070;53.586;9.692;2023-05-14T10:22:29;0.20;;;0.20;;
13991;SDS011;7070;53.586;9.692;2023-05-14T10:25:00;0.30;;;0.30;;
13991;SDS011;7070;53.586;9.692;2023-05-14T10:27:28;0.20;;;0.20;;
13991;SDS011;7070;53.586;9.692;2023-05-14T10:29:55;0.30;;;0.30;;
13991;SDS011;7070;53.586;9.692;2023-05-14T10:32:23;0.30;;;0.30;;
13991;SDS011;7070;53.586;9.692;2023-05-14T10:34:51;0.30;;;0.30;;
13991;SDS011;7070;53.586;9.692;2023-05-14T10:37:19;0.30;;;0.30;;
13991;SDS011;7070;53.586;9.692;2023-05-14T10:39:48;0.30;;;0.30;;
13991;SDS011;7070;53.586;9.692;2023-05-14T10:42:18;0.30;;;0.30;;
13991;SDS011;7070;53.586;9.692;2023-05-14T10:44:47;0.30;;;0.30;;
13991;SDS011;7070;53.586;9.692;2023-05-14T10:47:16;0.30;;;0.30;;
13991;SDS011;7070;53.586;9.692;2023-05-14T10:49:43;0.30;;;0.30;;
13991;SDS011;7070;53.586;9.692;2023-05-14T10:52:14;0.30;;;0.30;;
13991;SDS011;7070;53.586;9.692;2023-05-14T10:54:45;0.27;;;0.27;;
13991;SDS011;7070;53.586;9.692;2023-05-14T10:57:17;0.30;;;0.30;;
13991;SDS011;7070;53.586;9.692;2023-05-14T10:59:45;0.30;;;0.30;;
13991;SDS011;7070;53.586;9.692;2023-05-14T11:02:17;0.30;;;0.30;;
13991;SDS011;7070;53.586;9.692;2023-05-14T11:04:55;0.20;;;0.20;;
13991;SDS011;7070;53.586;9.692;2023-05-14T11:07:26;0.30;;;0.30;;
13991;SDS011;7070;53.586;9.692;2023-05-14T11:09:58;0.30;;;0.30;;
13991;SDS011;7070;53.586;9.692;2023-05-14T11:12:28;0.30;;;0.30;;
13991;SDS011;7070;53.586;9.692;2023-05-14T11:14:56;0.30;;;0.30;;
13991;SDS011;7070;53.586;9.692;2023-05-14T11:17:24;0.30;;;0.30;;
13991;SDS011;7070;53.586;9.692;2023-05-14T11:19:51;0.20;;;0.20;;
13991;SDS011;7070;53.586;9.692;2023-05-14T11:22:18;0.30;;;0.30;;
13991;SDS011;7070;53.586;9.692;2023-05-14T11:24:45;0.30;;;0.30;;
13991;SDS011;7070;53.586;9.692;2023-05-14T11:27:12;0.30;;;0.30;;
13991;SDS011;7070;53.586;9.692;2023-05-14T11:29:43;0.30;;;0.30;;
13991;SDS011;7070;53.586;9.692;2023-05-14T11:32:11;0.30;;;0.30;;
13991;SDS011;7070;53.586;9.692;2023-05-14T11:34:39;0.30;;;0.30;;
13991;SDS011;7070;53.586;9.692;2023-05-14T11:37:07;0.20;;;0.20;;
13991;SDS011;7070;53.586;9.692;2023-05-14T11:39:35;0.30;;;0.30;;
13991;SDS011;7070;53.586;9.692;2023-05-14T11:42:03;0.30;;;0.30;;
13991;SDS011;7070;53.586;9.692;2023-05-14T11:44:30;0.30;;;0.30;;
13991;SDS011;7070;53.586;9.692;2023-05-14T11:46:59;0.30;;;0.30;;
13991;SDS011;7070;53.586;9.692;2023-05-14T11:49:26;0.30;;;0.30;;
13991;SDS011;7070;53.586;9.692;2023-05-14T11:51:57;0.30;;;0.30;;
13991;SDS011;7070;53.586;9.692;2023-05-14T11:54:24;0.30;;;0.30;;
13991;SDS011;7070;53.586;9.692;2023-05-14T11:56:53;0.30;;;0.30;;
13991;SDS011;7070;53.586;9.692;2023-05-14T11:59:20;0.30;;;0.30;;
13991;SDS011;7070;53.586;9.692;2023-05-14T12:01:49;0.30;;;0.30;;
13991;SDS011;7070;53.586;9.692;2023-05-14T12:04:18;0.30;;;0.30;;
13991;SDS011;7070;53.586;9.692;2023-05-14T12:06:46;0.30;;;0.30;;
13991;SDS011;7070;53.586;9.692;2023-05-14T12:09:14;0.30;;;0.30;;
13991;SDS011;7070;53.586;9.692;2023-05-14T12:11:42;0.30;;;0.30;;
13991;SDS011;7070;53.586;9.692;2023-05-14T12:14:10;0.30;;;0.30;;
13991;SDS011;7070;53.586;9.692;2023-05-14T12:16:39;0.30;;;0.30;;
13991;SDS011;7070;53.586;9.692;2023-05-14T12:19:07;0.30;;;0.30;;
13991;SDS011;7070;53.586;9.692;2023-05-14T12:21:37;0.30;;;0.30;;
13991;SDS011;7070;53.586;9.692;2023-05-14T12:24:07;0.30;;;0.30;;
13991;SDS011;7070;53.586;9.692;2023-05-14T12:26:36;0.22;;;0.22;;
13991;SDS011;7070;53.586;9.692;2023-05-14T12:29:04;0.20;;;0.20;;
13991;SDS011;7070;53.586;9.692;2023-05-14T12:31:32;0.30;;;0.30;;
13991;SDS011;7070;53.586;9.692;2023-05-14T12:34:00;0.30;;;0.30;;
13991;SDS011;7070;53.586;9.692;2023-05-14T12:36:27;0.22;;;0.22;;
13991;SDS011;7070;53.586;9.692;2023-05-14T12:38:58;0.20;;;0.20;;
13991;SDS011;7070;53.586;9.692;2023-05-14T12:41:28;0.20;;;0.20;;
13991;SDS011;7070;53.586;9.692;2023-05-14T12:43:55;0.20;;;0.20;;
13991;SDS011;7070;53.586;9.692;2023-05-14T12:46:23;0.30;;;0.30;;
13991;SDS011;7070;53.586;9.692;2023-05-14T12:48:51;0.20;;;0.20;;
13991;SDS011;7070;53.586;9.692;2023-05-14T12:51:18;0.30;;;0.30;;
13991;SDS011;7070;53.586;9.692;2023-05-14T12:53:45;0.20;;;0.20;;
13991;SDS011;7070;53.586;9.692;2023-05-14T12:56:13;0.30;;;0.30;;
13991;SDS011;7070;53.586;9.692;2023-05-14T12:58:40;0.30;;;0.30;;
13991;SDS011;7070;53.586;9.692;2023-05-14T13:01:07;0.30;;;0.30;;
13991;SDS011;7070;53.586;9.692;2023-05-14T13:03:34;0.30;;;0.30;;
13991;SDS011;7070;53.586;9.692;2023-05-14T13:06:01;0.28;;;0.28;;
13991;SDS011;7070;53.586;9.692;2023-05-14T13:08:28;0.20;;;0.20;;
13991;SDS011;7070;53.586;9.692;2023-05-14T13:10:55;0.30;;;0.30;;
13991;SDS011;7070;53.586;9.692;2023-05-14T13:13:23;0.30;;;0.30;;
13991;SDS011;7070;53.586;9.692;2023-05-14T13:15:50;0.30;;;0.30;;
13991;SDS011;7070;53.586;9.692;2023-05-14T13:18:18;0.20;;;0.20;;
13991;SDS011;7070;53.586;9.692;2023-05-14T13:20:45;0.28;;;0.28;;
13991;SDS011;7070;53.586;9.692;2023-05-14T13:23:12;0.20;;;0.20;;
13991;SDS011;7070;53.586;9.692;2023-05-14T13:25:39;0.20;;;0.20;;
13991;SDS011;7070;53.586;9.692;2023-05-14T13:28:06;0.30;;;0.30;;
13991;SDS011;7070;53.586;9.692;2023-05-14T13:30:35;0.30;;;0.30;;
13991;SDS011;7070;53.586;9.692;2023-05-14T13:33:02;0.30;;;0.30;;
13991;SDS011;7070;53.586;9.692;2023-05-14T13:35:29;0.30;;;0.30;;
13991;SDS011;7070;53.586;9.692;2023-05-14T13:37:56;0.20;;;0.20;;
13991;SDS011;7070;53.586;9.692;2023-05-14T13:40:22;0.30;;;0.30;;
13991;SDS011;7070;53.586;9.692;2023-05-14T13:42:49;0.30;;;0.30;;
13991;SDS011;7070;53.586;9.692;2023-05-14T13:45:16;0.30;;;0.30;;
13991;SDS011;7070;53.586;9.692;2023-05-14T13:47:44;0.20;;;0.20;;
13991;SDS011;7070;53.586;9.692;2023-05-14T13:50:11;0.20;;;0.20;;
13991;SDS011;7070;53.586;9.692;2023-05-14T13:52:38;0.30;;;0.30;;
13991;SDS011;7070;53.586;9.692;2023-05-14T13:55:06;0.30;;;0.30;;
13991;SDS011;7070;53.586;9.692;2023-05-14T13:57:33;0.30;;;0.30;;
13991;SDS011;7070;53.586;9.692;2023-05-14T14:00:00;0.20;;;0.20;;
13991;SDS011;7070;53.586;9.692;2023-05-14T14:02:27;0.30;;;0.30;;
13991;SDS011;7070;53.586;9.692;2023-05-14T14:04:55;0.30;;;0.30;;
13991;SDS011;7070;53.586;9.692;2023-05-14T14:07:22;0.20;;;0.20;;
13991;SDS011;7070;53.586;9.692;2023-05-14T14:09:48;0.30;;;0.30;;
13991;SDS011;7070;53.586;9.692;2023-05-14T14:12:15;0.30;;;0.30;;
13991;SDS011;7070;53.586;9.692;2023-05-14T14:14:42;0.30;;;0.30;;
13991;SDS011;7070;53.586;9.692;2023-05-14T14:17:09;0.30;;;0.30;;
13991;SDS011;7070;53.586;9.692;2023-05-14T14:19:36;0.20;;;0.20;;
13991;SDS011;7070;53.586;9.692;2023-05-14T14:22:04;0.30;;;0.30;;
13991;SDS011;7070;53.586;9.692;2023-05-14T14:24:31;0.30;;;0.30;;
13991;SDS011;7070;53.586;9.692;2023-05-14T14:26:58;0.30;;;0.30;;
13991;SDS011;7070;53.586;9.692;2023-05-14T14:29:26;0.20;;;0.20;;
13991;SDS011;7070;53.586;9.692;2023-05-14T14:31:55;0.30;;;0.30;;
13991;SDS011;7070;53.586;9.692;2023-05-14T14:34:22;0.27;;;0.27;;
13991;SDS011;7070;53.586;9.692;2023-05-14T14:36:48;0.30;;;0.30;;
13991;SDS011;7070;53.586;9.692;2023-05-14T14:39:17;0.30;;;0.30;;
13991;SDS011;7070;53.586;9.692;2023-05-14T14:41:43;0.30;;;0.30;;
13991;SDS011;7070;53.586;9.692;2023-05-14T14:44:11;0.20;;;0.20;;
13991;SDS011;7070;53.586;9.692;2023-05-14T14:46:38;0.20;;;0.20;;
13991;SDS011;7070;53.586;9.692;2023-05-14T14:49:06;0.30;;;0.30;;
13991;SDS011;7070;53.586;9.692;2023-05-14T14:51:33;0.20;;;0.20;;
13991;SDS011;7070;53.586;9.692;2023-05-14T14:54:00;0.30;;;0.30;;
13991;SDS011;7070;53.586;9.692;2023-05-14T14:56:30;0.30;;;0.30;;
13991;SDS011;7070;53.586;9.692;2023-05-14T14:58:57;0.20;;;0.20;;
13991;SDS011;7070;53.586;9.692;2023-05-14T15:01:24;0.30;;;0.30;;
13991;SDS011;7070;53.586;9.692;2023-05-14T15:03:51;0.30;;;0.30;;